sensor_id;sensor_type;location;lat;lon;timestamp;pressure;altitude;pressure_sealevel;temperature;humidity
55916;BME280;41826;53.246;-6.670;2023-03-04T00:01:40;101642.31;;;5.09;100.00
55916;BME280;41826;53.246;-6.670;2023-03-04T00:04:06;101676.75;;;5.30;100.00
55916;BME280;41826;53.246;-6.670;2023-03-04T00:06:31;101693.22;;;5.14;100.00
55916;BME280;41826;53.246;-6.670;2023-03-04T00:08:57;101742.91;;;5.41;100.00
55916;BME280;41826;53.246;-6.670;2023-03-04T00:11:22;101709.00;;;5.43;100.00
55916;BME280;41826;53.246;-6.670;2023-03-04T00:13:48;101729.66;;;5.46;100.00
55916;BME280;41826;53.246;-6.670;2023-03-04T00:16:14;101697.06;;;5.39;100.00
55916;BME280;41826;53.246;-6.670;2023-03-04T00:18:39;101659.78;;;5.38;100.00
55916;BME280;41826;53.246;-6.670;2023-03-04T00:21:05;101614.16;;;5.47;100.00
55916;BME280;41826;53.246;-6.670;2023-03-04T00:23:31;101562.06;;;5.01;100.00
55916;BME280;41826;53.246;-6.670;2023-03-04T00:25:56;101589.13;;;4.51;100.00
55916;BME280;41826;53.246;-6.670;2023-03-04T00:28:22;101653.25;;;4.50;100.00
55916;BME280;41826;53.246;-6.670;2023-03-04T00:30:47;101707.91;;;4.33;100.00
55916;BME280;41826;53.246;-6.670;2023-03-04T00:33:13;101730.41;;;4.67;100.00
55916;BME280;41826;53.246;-6.670;2023-03-04T00:35:38;101719.16;;;4.67;100.00
55916;BME280;41826;53.246;-6.670;2023-03-04T00:38:04;101748.50;;;4.18;100.00
55916;BME280;41826;53.246;-6.670;2023-03-04T00:40:30;101777.41;;;4.47;100.00
55916;BME280;41826;53.246;-6.670;2023-03-04T00:42:55;101784.34;;;4.64;100.00
55916;BME280;41826;53.246;-6.670;2023-03-04T00:45:20;101775.56;;;4.49;100.00
55916;BME280;41826;53.246;-6.670;2023-03-04T00:47:46;101785.34;;;4.44;100.00
55916;BME280;41826;53.246;-6.670;2023-03-04T00:50:11;101815.16;;;4.37;100.00
55916;BME280;41826;53.246;-6.670;2023-03-04T00:52:37;101816.31;;;4.13;100.00
55916;BME280;41826;53.246;-6.670;2023-03-04T00:55:02;101830.59;;;4.22;100.00
55916;BME280;41826;53.246;-6.670;2023-03-04T00:57:28;101834.59;;;4.29;100.00
55916;BME280;41826;53.246;-6.670;2023-03-04T00:59:53;101830.44;;;4.25;100.00
55916;BME280;41826;53.246;-6.670;2023-03-04T01:02:19;101817.78;;;4.54;100.00
55916;BME280;41826;53.246;-6.670;2023-03-04T01:04:44;101802.59;;;4.80;100.00
55916;BME280;41826;53.246;-6.670;2023-03-04T01:07:10;101765.00;;;4.69;100.00
55916;BME280;41826;53.246;-6.670;2023-03-04T01:09:35;101744.69;;;5.09;100.00
55916;BME280;41826;53.246;-6.670;2023-03-04T01:12:00;101736.22;;;5.37;100.00
55916;BME280;41826;53.246;-6.670;2023-03-04T01:14:26;101627.91;;;5.03;100.00
55916;BME280;41826;53.246;-6.670;2023-03-04T01:16:51;101609.41;;;5.39;100.00
55916;BME280;41826;53.246;-6.670;2023-03-04T01:19:17;101562.22;;;5.44;100.00
55916;BME280;41826;53.246;-6.670;2023-03-04T01:21:43;101554.66;;;5.55;100.00
55916;BME280;41826;53.246;-6.670;2023-03-04T01:24:08;101541.25;;;5.61;100.00
55916;BME280;41826;53.246;-6.670;2023-03-04T01:26:34;101519.88;;;5.71;100.00
55916;BME280;41826;53.246;-6.670;2023-03-04T01:28:59;101481.72;;;5.70;100.00
55916;BME280;41826;53.246;-6.670;2023-03-04T01:31:25;101442.94;;;5.65;100.00
55916;BME280;41826;53.246;-6.670;2023-03-04T01:33:51;101434.81;;;5.70;100.00
55916;BME280;41826;53.246;-6.670;2023-03-04T01:36:16;101424.41;;;5.70;100.00
55916;BME280;41826;53.246;-6.670;2023-03-04T01:38:42;101418.19;;;5.72;100.00
55916;BME280;41826;53.246;-6.670;2023-03-04T01:41:07;101395.38;;;5.04;100.00
55916;BME280;41826;53.246;-6.670;2023-03-04T01:43:34;101410.28;;;5.45;100.00
55916;BME280;41826;53.246;-6.670;2023-03-04T01:46:01;101417.53;;;5.54;100.00
55916;BME280;41826;53.246;-6.670;2023-03-04T01:48:32;101398.66;;;5.51;100.00
55916;BME280;41826;53.246;-6.670;2023-03-04T01:51:00;101413.53;;;5.63;100.00
55916;BME280;41826;53.246;-6.670;2023-03-04T01:53:28;101399.31;;;5.69;100.00
55916;BME280;41826;53.246;-6.670;2023-03-04T01:55:56;101394.91;;;5.83;100.00
55916;BME280;41826;53.246;-6.670;2023-03-04T01:58:25;101376.47;;;5.86;100.00
55916;BME280;41826;53.246;-6.670;2023-03-04T02:00:52;101314.22;;;5.40;100.00
55916;BME280;41826;53.246;-6.670;2023-03-04T02:03:18;101318.56;;;5.54;100.00
55916;BME280;41826;53.246;-6.670;2023-03-04T02:05:54;101316.44;;;5.61;100.00
55916;BME280;41826;53.246;-6.670;2023-03-04T02:08:22;101334.94;;;5.56;100.00
55916;BME280;41826;53.246;-6.670;2023-03-04T02:10:48;101327.69;;;5.61;100.00
55916;BME280;41826;53.246;-6.670;2023-03-04T02:13:14;101334.47;;;5.64;100.00
55916;BME280;41826;53.246;-6.670;2023-03-04T02:15:42;101347.00;;;5.86;100.00
55916;BME280;41826;53.246;-6.670;2023-03-04T02:18:22;101348.47;;;5.90;100.00
55916;BME280;41826;53.246;-6.670;2023-03-04T02:23:36;101312.09;;;5.89;100.00
55916;BME280;41826;53.246;-6.670;2023-03-04T02:26:14;101314.97;;;5.98;100.00
55916;BME280;41826;53.246;-6.670;2023-03-04T02:28:40;101311.41;;;5.99;100.00
55916;BME280;41826;53.246;-6.670;2023-03-04T02:31:08;101298.38;;;5.99;100.00
55916;BME280;41826;53.246;-6.670;2023-03-04T02:33:35;101298.31;;;6.01;100.00
55916;BME280;41826;53.246;-6.670;2023-03-04T02:36:00;101288.72;;;6.01;100.00
55916;BME280;41826;53.246;-6.670;2023-03-04T02:38:25;101278.28;;;5.87;100.00
55916;BME280;41826;53.246;-6.670;2023-03-04T02:40:53;101261.25;;;5.69;100.00
55916;BME280;41826;53.246;-6.670;2023-03-04T02:43:20;101236.41;;;5.36;100.00
55916;BME280;41826;53.246;-6.670;2023-03-04T02:45:47;101257.00;;;5.53;100.00
55916;BME280;41826;53.246;-6.670;2023-03-04T02:48:17;101234.69;;;5.08;100.00
55916;BME280;41826;53.246;-6.670;2023-03-04T02:50:46;101259.22;;;5.04;100.00
55916;BME280;41826;53.246;-6.670;2023-03-04T02:53:12;101274.00;;;5.17;100.00
55916;BME280;41826;53.246;-6.670;2023-03-04T02:55:39;101293.31;;;5.28;100.00
55916;BME280;41826;53.246;-6.670;2023-03-04T02:58:06;101324.72;;;5.39;100.00
55916;BME280;41826;53.246;-6.670;2023-03-04T03:00:32;101338.97;;;5.48;100.00
55916;BME280;41826;53.246;-6.670;2023-03-04T03:02:57;101357.47;;;5.57;100.00
55916;BME280;41826;53.246;-6.670;2023-03-04T03:05:25;101341.84;;;5.57;100.00
55916;BME280;41826;53.246;-6.670;2023-03-04T03:07:51;101347.50;;;5.64;100.00
55916;BME280;41826;53.246;-6.670;2023-03-04T03:10:16;101340.88;;;5.73;100.00
55916;BME280;41826;53.246;-6.670;2023-03-04T03:12:42;101339.66;;;5.78;100.00
55916;BME280;41826;53.246;-6.670;2023-03-04T03:15:08;101325.88;;;5.76;100.00
55916;BME280;41826;53.246;-6.670;2023-03-04T03:17:33;101322.38;;;5.77;100.00
55916;BME280;41826;53.246;-6.670;2023-03-04T03:19:59;101305.69;;;5.80;100.00
55916;BME280;41826;53.246;-6.670;2023-03-04T03:22:24;101256.94;;;5.40;100.00
55916;BME280;41826;53.246;-6.670;2023-03-04T03:24:49;101263.41;;;5.62;100.00
55916;BME280;41826;53.246;-6.670;2023-03-04T03:27:15;101193.59;;;5.13;100.00
55916;BME280;41826;53.246;-6.670;2023-03-04T03:29:40;101229.97;;;4.71;100.00
55916;BME280;41826;53.246;-6.670;2023-03-04T03:32:06;101222.63;;;4.92;100.00
55916;BME280;41826;53.246;-6.670;2023-03-04T03:34:31;101205.06;;;4.96;100.00
55916;BME280;41826;53.246;-6.670;2023-03-04T03:36:57;101204.34;;;4.51;100.00
55916;BME280;41826;53.246;-6.670;2023-03-04T03:39:22;101252.75;;;4.96;100.00
55916;BME280;41826;53.246;-6.670;2023-03-04T03:41:47;101288.69;;;5.18;100.00
55916;BME280;41826;53.246;-6.670;2023-03-04T03:44:13;101220.47;;;4.70;100.00
55916;BME280;41826;53.246;-6.670;2023-03-04T03:46:38;101239.94;;;4.34;100.00
55916;BME280;41826;53.246;-6.670;2023-03-04T03:49:04;101284.44;;;4.14;100.00
55916;BME280;41826;53.246;-6.670;2023-03-04T03:51:29;101345.72;;;4.78;100.00
55916;BME280;41826;53.246;-6.670;2023-03-04T03:53:54;101379.03;;;5.16;100.00
55916;BME280;41826;53.246;-6.670;2023-03-04T03:56:20;101327.53;;;4.78;100.00
55916;BME280;41826;53.246;-6.670;2023-03-04T03:58:45;101302.34;;;4.79;100.00
55916;BME280;41826;53.246;-6.670;2023-03-04T04:01:11;101298.34;;;4.88;100.00
55916;BME280;41826;53.246;-6.670;2023-03-04T04:03:36;101274.34;;;4.68;100.00
55916;BME280;41826;53.246;-6.670;2023-03-04T04:06:01;101280.75;;;4.48;100.00
55916;BME280;41826;53.246;-6.670;2023-03-04T04:08:27;101289.19;;;4.52;100.00
55916;BME280;41826;53.246;-6.670;2023-03-04T04:10:52;101290.97;;;4.51;100.00
55916;BME280;41826;53.246;-6.670;2023-03-04T04:13:18;101298.09;;;4.48;100.00
55916;BME280;41826;53.246;-6.670;2023-03-04T04:15:43;101338.03;;;4.91;100.00
55916;BME280;41826;53.246;-6.670;2023-03-04T04:18:09;101274.91;;;4.59;100.00
55916;BME280;41826;53.246;-6.670;2023-03-04T04:20:34;101266.84;;;4.19;100.00
55916;BME280;41826;53.246;-6.670;2023-03-04T04:23:01;101271.97;;;4.05;100.00
55916;BME280;41826;53.246;-6.670;2023-03-04T04:25:27;101309.25;;;4.20;100.00
55916;BME280;41826;53.246;-6.670;2023-03-04T04:27:52;101316.25;;;4.33;100.00
55916;BME280;41826;53.246;-6.670;2023-03-04T04:30:18;101319.38;;;4.54;100.00
55916;BME280;41826;53.246;-6.670;2023-03-04T04:32:43;101280.63;;;4.36;100.00
55916;BME280;41826;53.246;-6.670;2023-03-04T04:35:08;101261.00;;;4.16;100.00
55916;BME280;41826;53.246;-6.670;2023-03-04T04:37:34;101278.25;;;4.17;100.00
55916;BME280;41826;53.246;-6.670;2023-03-04T04:39:59;101278.03;;;4.36;100.00
55916;BME280;41826;53.246;-6.670;2023-03-04T04:42:26;101297.03;;;4.66;100.00
55916;BME280;41826;53.246;-6.670;2023-03-04T04:44:51;101269.81;;;4.27;100.00
55916;BME280;41826;53.246;-6.670;2023-03-04T04:47:17;101283.69;;;4.12;100.00
55916;BME280;41826;53.246;-6.670;2023-03-04T04:49:42;101292.50;;;4.09;100.00
55916;BME280;41826;53.246;-6.670;2023-03-04T04:52:09;101296.66;;;3.98;100.00
55916;BME280;41826;53.246;-6.670;2023-03-04T04:54:35;101324.56;;;4.24;100.00
55916;BME280;41826;53.246;-6.670;2023-03-04T04:57:00;101328.53;;;4.00;100.00
55916;BME280;41826;53.246;-6.670;2023-03-04T04:59:25;101351.34;;;3.95;100.00
55916;BME280;41826;53.246;-6.670;2023-03-04T05:01:51;101367.50;;;4.31;100.00
55916;BME280;41826;53.246;-6.670;2023-03-04T05:04:16;101406.50;;;4.62;100.00
55916;BME280;41826;53.246;-6.670;2023-03-04T05:06:42;101415.19;;;4.76;100.00
55916;BME280;41826;53.246;-6.670;2023-03-04T05:09:07;101358.91;;;4.45;100.00
55916;BME280;41826;53.246;-6.670;2023-03-04T05:11:33;101319.25;;;4.42;100.00
55916;BME280;41826;53.246;-6.670;2023-03-04T05:13:58;101322.88;;;4.39;100.00
55916;BME280;41826;53.246;-6.670;2023-03-04T05:16:24;101315.56;;;4.46;100.00
55916;BME280;41826;53.246;-6.670;2023-03-04T05:18:49;101305.16;;;4.46;100.00
55916;BME280;41826;53.246;-6.670;2023-03-04T05:21:14;101306.75;;;4.48;100.00
55916;BME280;41826;53.246;-6.670;2023-03-04T05:23:41;101296.00;;;4.24;100.00
55916;BME280;41826;53.246;-6.670;2023-03-04T05:26:09;101331.22;;;4.74;100.00
55916;BME280;41826;53.246;-6.670;2023-03-04T05:28:35;101306.13;;;4.59;100.00
55916;BME280;41826;53.246;-6.670;2023-03-04T05:31:01;101250.38;;;4.63;100.00
55916;BME280;41826;53.246;-6.670;2023-03-04T05:33:28;101238.59;;;4.57;100.00
55916;BME280;41826;53.246;-6.670;2023-03-04T05:35:53;101216.50;;;4.06;100.00
55916;BME280;41826;53.246;-6.670;2023-03-04T05:38:19;101233.88;;;3.89;100.00
55916;BME280;41826;53.246;-6.670;2023-03-04T05:40:45;101248.16;;;4.12;100.00
55916;BME280;41826;53.246;-6.670;2023-03-04T05:43:11;101252.56;;;4.26;100.00
55916;BME280;41826;53.246;-6.670;2023-03-04T05:45:37;101281.31;;;4.53;100.00
55916;BME280;41826;53.246;-6.670;2023-03-04T05:48:04;101290.13;;;4.65;100.00
55916;BME280;41826;53.246;-6.670;2023-03-04T05:50:30;101277.91;;;4.82;100.00
55916;BME280;41826;53.246;-6.670;2023-03-04T05:52:56;101276.44;;;4.92;100.00
55916;BME280;41826;53.246;-6.670;2023-03-04T05:55:22;101273.38;;;4.99;100.00
55916;BME280;41826;53.246;-6.670;2023-03-04T05:57:48;101259.06;;;5.07;100.00
55916;BME280;41826;53.246;-6.670;2023-03-04T06:00:14;101265.44;;;5.15;100.00
55916;BME280;41826;53.246;-6.670;2023-03-04T06:02:40;101269.63;;;5.18;100.00
55916;BME280;41826;53.246;-6.670;2023-03-04T06:05:07;101231.66;;;4.87;100.00
55916;BME280;41826;53.246;-6.670;2023-03-04T06:07:33;101158.91;;;4.42;100.00
55916;BME280;41826;53.246;-6.670;2023-03-04T06:09:59;101137.28;;;4.13;100.00
55916;BME280;41826;53.246;-6.670;2023-03-04T06:12:24;101136.91;;;4.19;100.00
55916;BME280;41826;53.246;-6.670;2023-03-04T06:14:50;101141.19;;;4.34;100.00
55916;BME280;41826;53.246;-6.670;2023-03-04T06:17:15;101149.00;;;4.49;100.00
55916;BME280;41826;53.246;-6.670;2023-03-04T06:19:41;101143.59;;;4.52;100.00
55916;BME280;41826;53.246;-6.670;2023-03-04T06:22:07;101170.31;;;4.68;100.00
55916;BME280;41826;53.246;-6.670;2023-03-04T06:24:34;101196.59;;;4.78;100.00
55916;BME280;41826;53.246;-6.670;2023-03-04T06:26:59;101214.94;;;4.76;100.00
55916;BME280;41826;53.246;-6.670;2023-03-04T06:29:25;101150.28;;;4.27;100.00
55916;BME280;41826;53.246;-6.670;2023-03-04T06:31:51;101161.84;;;3.93;100.00
55916;BME280;41826;53.246;-6.670;2023-03-04T06:34:17;101164.03;;;3.85;100.00
55916;BME280;41826;53.246;-6.670;2023-03-04T06:36:42;101155.66;;;3.80;100.00
55916;BME280;41826;53.246;-6.670;2023-03-04T06:39:08;101178.88;;;3.97;100.00
55916;BME280;41826;53.246;-6.670;2023-03-04T06:41:34;101179.88;;;4.10;100.00
55916;BME280;41826;53.246;-6.670;2023-03-04T06:43:59;101176.44;;;4.24;100.00
55916;BME280;41826;53.246;-6.670;2023-03-04T06:46:25;101159.00;;;4.26;100.00
55916;BME280;41826;53.246;-6.670;2023-03-04T06:48:51;101138.75;;;4.03;100.00
55916;BME280;41826;53.246;-6.670;2023-03-04T06:51:16;101140.22;;;3.93;100.00
55916;BME280;41826;53.246;-6.670;2023-03-04T06:53:42;101162.25;;;3.55;100.00
55916;BME280;41826;53.246;-6.670;2023-03-04T06:56:09;101194.53;;;3.35;100.00
55916;BME280;41826;53.246;-6.670;2023-03-04T06:58:35;101224.22;;;3.45;100.00
55916;BME280;41826;53.246;-6.670;2023-03-04T07:01:13;101253.13;;;3.39;100.00
55916;BME280;41826;53.246;-6.670;2023-03-04T07:03:39;101269.44;;;3.41;100.00
55916;BME280;41826;53.246;-6.670;2023-03-04T07:06:05;101278.31;;;3.69;100.00
55916;BME280;41826;53.246;-6.670;2023-03-04T07:08:30;101263.84;;;3.65;100.00
55916;BME280;41826;53.246;-6.670;2023-03-04T07:10:56;101256.94;;;3.64;100.00
55916;BME280;41826;53.246;-6.670;2023-03-04T07:13:21;101247.16;;;3.85;100.00
55916;BME280;41826;53.246;-6.670;2023-03-04T07:15:47;101236.75;;;3.85;100.00
55916;BME280;41826;53.246;-6.670;2023-03-04T07:18:12;101218.47;;;3.86;100.00
55916;BME280;41826;53.246;-6.670;2023-03-04T07:20:37;101220.88;;;3.89;100.00
55916;BME280;41826;53.246;-6.670;2023-03-04T07:23:03;101214.44;;;3.97;100.00
55916;BME280;41826;53.246;-6.670;2023-03-04T07:25:28;101218.22;;;4.21;100.00
55916;BME280;41826;53.246;-6.670;2023-03-04T07:27:54;101189.56;;;3.93;100.00
55916;BME280;41826;53.246;-6.670;2023-03-04T07:30:19;101184.84;;;3.99;100.00
55916;BME280;41826;53.246;-6.670;2023-03-04T07:32:44;101172.91;;;4.11;100.00
55916;BME280;41826;53.246;-6.670;2023-03-04T07:35:10;101148.91;;;3.91;100.00
55916;BME280;41826;53.246;-6.670;2023-03-04T07:37:35;101161.03;;;4.21;100.00
55916;BME280;41826;53.246;-6.670;2023-03-04T07:40:01;101135.47;;;3.99;100.00
55916;BME280;41826;53.246;-6.670;2023-03-04T07:42:27;101140.06;;;3.80;100.00
55916;BME280;41826;53.246;-6.670;2023-03-04T07:44:52;101134.84;;;3.96;100.00
55916;BME280;41826;53.246;-6.670;2023-03-04T07:47:19;101143.56;;;4.09;100.00
55916;BME280;41826;53.246;-6.670;2023-03-04T07:49:45;101128.25;;;3.90;100.00
55916;BME280;41826;53.246;-6.670;2023-03-04T07:52:10;101186.59;;;4.43;100.00
55916;BME280;41826;53.246;-6.670;2023-03-04T07:54:38;101160.66;;;4.27;100.00
55916;BME280;41826;53.246;-6.670;2023-03-04T07:57:03;101130.13;;;3.72;100.00
55916;BME280;41826;53.246;-6.670;2023-03-04T07:59:29;101151.63;;;3.90;100.00
55916;BME280;41826;53.246;-6.670;2023-03-04T08:01:55;101190.38;;;4.23;100.00
55916;BME280;41826;53.246;-6.670;2023-03-04T08:04:21;101245.94;;;4.65;100.00
55916;BME280;41826;53.246;-6.670;2023-03-04T08:06:46;101281.63;;;4.77;100.00
55916;BME280;41826;53.246;-6.670;2023-03-04T08:09:13;101227.19;;;4.74;100.00
55916;BME280;41826;53.246;-6.670;2023-03-04T08:11:39;101246.50;;;4.85;100.00
55916;BME280;41826;53.246;-6.670;2023-03-04T08:14:05;101231.84;;;4.84;100.00
55916;BME280;41826;53.246;-6.670;2023-03-04T08:16:31;101246.88;;;4.93;100.00
55916;BME280;41826;53.246;-6.670;2023-03-04T08:18:59;101175.16;;;4.74;100.00
55916;BME280;41826;53.246;-6.670;2023-03-04T08:21:26;101104.69;;;3.93;100.00
55916;BME280;41826;53.246;-6.670;2023-03-04T08:23:52;101107.03;;;3.98;100.00
55916;BME280;41826;53.246;-6.670;2023-03-04T08:26:30;101132.72;;;4.45;100.00
55916;BME280;41826;53.246;-6.670;2023-03-04T08:29:01;101159.75;;;4.71;100.00
55916;BME280;41826;53.246;-6.670;2023-03-04T08:31:27;101187.69;;;4.96;100.00
55916;BME280;41826;53.246;-6.670;2023-03-04T08:33:52;101118.97;;;4.72;100.00
55916;BME280;41826;53.246;-6.670;2023-03-04T08:36:18;101061.97;;;4.54;100.00
55916;BME280;41826;53.246;-6.670;2023-03-04T08:38:43;101124.41;;;4.96;100.00
55916;BME280;41826;53.246;-6.670;2023-03-04T08:41:09;101044.34;;;4.45;100.00
55916;BME280;41826;53.246;-6.670;2023-03-04T08:43:34;101023.25;;;4.08;100.00
55916;BME280;41826;53.246;-6.670;2023-03-04T08:46:00;101023.59;;;4.17;100.00
55916;BME280;41826;53.246;-6.670;2023-03-04T08:48:26;101018.13;;;4.07;100.00
55916;BME280;41826;53.246;-6.670;2023-03-04T08:50:52;101037.41;;;4.46;100.00
55916;BME280;41826;53.246;-6.670;2023-03-04T08:53:18;101096.41;;;4.72;100.00
55916;BME280;41826;53.246;-6.670;2023-03-04T08:55:44;101136.97;;;4.89;100.00
55916;BME280;41826;53.246;-6.670;2023-03-04T08:58:10;101074.41;;;4.64;100.00
55916;BME280;41826;53.246;-6.670;2023-03-04T09:00:37;101023.69;;;4.29;100.00
55916;BME280;41826;53.246;-6.670;2023-03-04T09:03:03;101047.19;;;4.69;100.00
55916;BME280;41826;53.246;-6.670;2023-03-04T09:05:29;101053.06;;;4.86;100.00
55916;BME280;41826;53.246;-6.670;2023-03-04T09:07:55;101074.78;;;4.99;100.00
55916;BME280;41826;53.246;-6.670;2023-03-04T09:10:20;101124.03;;;5.29;100.00
55916;BME280;41826;53.246;-6.670;2023-03-04T09:12:46;101093.72;;;5.01;100.00
55916;BME280;41826;53.246;-6.670;2023-03-04T09:15:13;101082.31;;;5.16;100.00
55916;BME280;41826;53.246;-6.670;2023-03-04T09:17:39;101034.03;;;5.12;100.00
55916;BME280;41826;53.246;-6.670;2023-03-04T09:20:07;100986.63;;;4.67;100.00
55916;BME280;41826;53.246;-6.670;2023-03-04T09:22:39;101024.91;;;5.19;100.00
55916;BME280;41826;53.246;-6.670;2023-03-04T09:25:05;101067.31;;;5.07;100.00
55916;BME280;41826;53.246;-6.670;2023-03-04T09:27:31;100973.63;;;4.67;100.00
55916;BME280;41826;53.246;-6.670;2023-03-04T09:29:56;101024.88;;;5.07;100.00
55916;BME280;41826;53.246;-6.670;2023-03-04T09:32:22;100994.97;;;4.72;100.00
55916;BME280;41826;53.246;-6.670;2023-03-04T09:34:47;101065.81;;;5.30;100.00
55916;BME280;41826;53.246;-6.670;2023-03-04T09:37:13;101128.59;;;5.53;100.00
55916;BME280;41826;53.246;-6.670;2023-03-04T09:39:38;101136.28;;;5.54;100.00
55916;BME280;41826;53.246;-6.670;2023-03-04T09:42:05;101118.88;;;5.42;100.00
55916;BME280;41826;53.246;-6.670;2023-03-04T09:44:34;101102.25;;;5.57;100.00
55916;BME280;41826;53.246;-6.670;2023-03-04T09:47:08;101141.22;;;5.72;100.00
55916;BME280;41826;53.246;-6.670;2023-03-04T09:49:39;101152.38;;;5.74;100.00
55916;BME280;41826;53.246;-6.670;2023-03-04T09:54:59;100953.72;;;4.53;100.00
55916;BME280;41826;53.246;-6.670;2023-03-04T10:06:01;100980.47;;;5.48;100.00
55916;BME280;41826;53.246;-6.670;2023-03-04T10:10:58;100982.34;;;5.59;100.00
55916;BME280;41826;53.246;-6.670;2023-03-04T10:13:32;100900.56;;;4.97;100.00
55916;BME280;41826;53.246;-6.670;2023-03-04T10:16:02;100873.59;;;5.11;100.00
55916;BME280;41826;53.246;-6.670;2023-03-04T10:18:35;100865.19;;;4.15;100.00
55916;BME280;41826;53.246;-6.670;2023-03-04T10:21:18;100874.88;;;4.53;100.00
55916;BME280;41826;53.246;-6.670;2023-03-04T10:23:44;100867.00;;;4.27;100.00
55916;BME280;41826;53.246;-6.670;2023-03-04T10:26:13;100875.78;;;4.12;100.00
55916;BME280;41826;53.246;-6.670;2023-03-04T10:28:40;100878.47;;;3.83;100.00
55916;BME280;41826;53.246;-6.670;2023-03-04T10:33:38;100889.78;;;3.82;100.00
55916;BME280;41826;53.246;-6.670;2023-03-04T10:38:58;100875.75;;;4.26;100.00
55916;BME280;41826;53.246;-6.670;2023-03-04T10:41:27;100893.50;;;4.87;100.00
55916;BME280;41826;53.246;-6.670;2023-03-04T10:46:28;100855.00;;;4.12;100.00
55916;BME280;41826;53.246;-6.670;2023-03-04T10:48:54;100868.28;;;4.07;100.00
55916;BME280;41826;53.246;-6.670;2023-03-04T10:51:26;100868.81;;;4.12;100.00
55916;BME280;41826;53.246;-6.670;2023-03-04T10:54:06;100881.34;;;4.60;100.00
55916;BME280;41826;53.246;-6.670;2023-03-04T10:56:42;100871.81;;;4.73;100.00
55916;BME280;41826;53.246;-6.670;2023-03-04T10:59:45;100851.00;;;4.73;100.00
55916;BME280;41826;53.246;-6.670;2023-03-04T11:04:40;100818.94;;;4.60;100.00
55916;BME280;41826;53.246;-6.670;2023-03-04T11:07:09;100824.84;;;4.09;100.00
55916;BME280;41826;53.246;-6.670;2023-03-04T11:09:35;100853.22;;;4.40;100.00
55916;BME280;41826;53.246;-6.670;2023-03-04T11:12:05;100890.78;;;5.01;100.00
55916;BME280;41826;53.246;-6.670;2023-03-04T11:14:40;100848.75;;;4.94;100.00
55916;BME280;41826;53.246;-6.670;2023-03-04T11:17:26;100827.94;;;4.94;100.00
55916;BME280;41826;53.246;-6.670;2023-03-04T11:20:10;100863.28;;;5.48;100.00
55916;BME280;41826;53.246;-6.670;2023-03-04T11:22:38;100921.34;;;5.87;100.00
55916;BME280;41826;53.246;-6.670;2023-03-04T11:25:35;100866.66;;;5.74;100.00
55916;BME280;41826;53.246;-6.670;2023-03-04T11:28:12;100860.09;;;5.81;100.00
55916;BME280;41826;53.246;-6.670;2023-03-04T11:31:08;100865.38;;;6.05;100.00
55916;BME280;41826;53.246;-6.670;2023-03-04T11:33:45;100788.56;;;5.61;100.00
55916;BME280;41826;53.246;-6.670;2023-03-04T11:36:33;100782.13;;;5.91;100.00
55916;BME280;41826;53.246;-6.670;2023-03-04T11:39:02;100744.97;;;5.52;100.00
55916;BME280;41826;53.246;-6.670;2023-03-04T11:41:38;100735.69;;;5.11;100.00
55916;BME280;41826;53.246;-6.670;2023-03-04T11:44:05;100727.44;;;4.55;100.00
55916;BME280;41826;53.246;-6.670;2023-03-04T12:03:17;100773.59;;;4.39;100.00
55916;BME280;41826;53.246;-6.670;2023-03-04T12:06:13;100781.19;;;5.06;100.00
55916;BME280;41826;53.246;-6.670;2023-03-04T12:11:52;100734.50;;;5.04;100.00
55916;BME280;41826;53.246;-6.670;2023-03-04T12:15:26;100732.94;;;4.50;100.00
55916;BME280;41826;53.246;-6.670;2023-03-04T12:20:29;100733.97;;;4.99;100.00
55916;BME280;41826;53.246;-6.670;2023-03-04T12:38:58;100703.41;;;4.77;100.00
55916;BME280;41826;53.246;-6.670;2023-03-04T12:41:27;100704.56;;;4.60;100.00
55916;BME280;41826;53.246;-6.670;2023-03-04T12:49:18;100739.53;;;4.56;100.00
55916;BME280;41826;53.246;-6.670;2023-03-04T12:52:00;100790.06;;;5.53;100.00
55916;BME280;41826;53.246;-6.670;2023-03-04T12:54:30;100703.28;;;4.91;100.00
55916;BME280;41826;53.246;-6.670;2023-03-04T13:02:54;100652.13;;;4.79;100.00
55916;BME280;41826;53.246;-6.670;2023-03-04T13:16:55;100627.69;;;5.54;100.00
55916;BME280;41826;53.246;-6.670;2023-03-04T13:22:28;100622.31;;;5.44;100.00
55916;BME280;41826;53.246;-6.670;2023-03-04T13:24:55;100587.22;;;5.61;100.00
55916;BME280;41826;53.246;-6.670;2023-03-04T13:27:44;100577.88;;;5.94;100.00
55916;BME280;41826;53.246;-6.670;2023-03-04T13:41:23;100582.72;;;4.43;100.00
55916;BME280;41826;53.246;-6.670;2023-03-04T13:43:54;100581.38;;;4.87;100.00
55916;BME280;41826;53.246;-6.670;2023-03-04T13:46:27;100577.75;;;4.76;100.00
55916;BME280;41826;53.246;-6.670;2023-03-04T13:56:37;100558.94;;;5.56;100.00
55916;BME280;41826;53.246;-6.670;2023-03-04T14:01:34;100514.03;;;5.41;100.00
55916;BME280;41826;53.246;-6.670;2023-03-04T14:04:09;100515.31;;;5.82;100.00
55916;BME280;41826;53.246;-6.670;2023-03-04T14:06:41;100508.22;;;5.27;100.00
55916;BME280;41826;53.246;-6.670;2023-03-04T14:09:14;100501.53;;;5.69;100.00
55916;BME280;41826;53.246;-6.670;2023-03-04T14:11:41;100518.03;;;5.81;100.00
55916;BME280;41826;53.246;-6.670;2023-03-04T14:14:13;100498.22;;;5.45;100.00
55916;BME280;41826;53.246;-6.670;2023-03-04T14:19:22;100497.06;;;5.60;100.00
55916;BME280;41826;53.246;-6.670;2023-03-04T14:21:49;100499.66;;;5.13;100.00
55916;BME280;41826;53.246;-6.670;2023-03-04T14:24:17;100488.31;;;5.83;100.00
55916;BME280;41826;53.246;-6.670;2023-03-04T14:26:44;100525.03;;;6.14;100.00
55916;BME280;41826;53.246;-6.670;2023-03-04T14:29:24;100503.06;;;6.50;100.00
55916;BME280;41826;53.246;-6.670;2023-03-04T14:31:50;100569.03;;;6.85;100.00
55916;BME280;41826;53.246;-6.670;2023-03-04T14:34:23;100569.19;;;7.15;100.00
55916;BME280;41826;53.246;-6.670;2023-03-04T14:36:49;100599.16;;;7.32;100.00
55916;BME280;41826;53.246;-6.670;2023-03-04T14:39:17;100605.28;;;7.43;100.00